Time;durP1;ratioP1;P1;durP2;ratioP2;P2;SDS_P1;SDS_P2;PMS_P1;PMS_P2;Temp;Humidity;BMP_temperature;BMP_pressure;BME280_temperature;BME280_humidity;BME280_pressure;Samples;Min_cycle;Max_cycle;Signal;HPM_P1;HPM_P2
2022/11/16 00:01:23;;;;;;;11.00;7.83;;;;;;;;;;5030208;28;20029;-77
2022/11/16 00:03:50;;;;;;;13.70;7.67;;;;;;;;;;5025938;28;20561;-77
2022/11/16 00:06:16;;;;;;;11.70;8.17;;;;;;;;;;5017782;28;20034;-77
2022/11/16 00:08:44;;;;;;;12.17;8.10;;;;;;;;;;5017212;28;20084;-77
2022/11/16 00:11:12;;;;;;;10.67;7.90;;;;;;;;;;5018374;28;20117;-77
2022/11/16 00:13:38;;;;;;;12.70;8.27;;;;;;;;;;5027370;28;20034;-77
2022/11/16 00:16:05;;;;;;;14.30;7.77;;;;;;;;;;5019025;28;20083;-77
2022/11/16 00:18:31;;;;;;;12.13;8.40;;;;;;;;;;5026316;28;20033;-77
2022/11/16 00:20:57;;;;;;;11.37;7.83;;;;;;;;;;5029194;28;20369;-77
2022/11/16 00:23:24;;;;;;;15.60;8.93;;;;;;;;;;5019346;28;20037;-77
2022/11/16 00:25:52;;;;;;;10.83;7.80;;;;;;;;;;5016316;28;20034;-78
2022/11/16 00:28:21;;;;;;;14.53;8.90;;;;;;;;;;5019679;28;20111;-76
2022/11/16 00:30:47;;;;;;;14.20;7.50;;;;;;;;;;5020675;28;20159;-77
2022/11/16 00:33:15;;;;;;;12.83;8.40;;;;;;;;;;5020003;28;20363;-77
2022/11/16 00:35:41;;;;;;;14.10;8.90;;;;;;;;;;5020416;28;20082;-77
2022/11/16 00:38:07;;;;;;;14.13;8.80;;;;;;;;;;5018360;28;20018;-77
2022/11/16 00:40:33;;;;;;;13.50;9.03;;;;;;;;;;5020419;28;20397;-77
2022/11/16 00:42:59;;;;;;;13.43;8.70;;;;;;;;;;5017326;28;21675;-77
2022/11/16 00:45:25;;;;;;;13.47;8.30;;;;;;;;;;5021549;28;20033;-77
2022/11/16 00:47:51;;;;;;;13.27;8.43;;;;;;;;;;5020039;28;20446;-77
2022/11/16 00:50:17;;;;;;;12.60;8.80;;;;;;;;;;5030066;28;20461;-77
2022/11/16 00:52:43;;;;;;;12.73;8.43;;;;;;;;;;5032893;28;20042;-77
2022/11/16 00:55:09;;;;;;;11.47;8.43;;;;;;;;;;5018972;28;20108;-77
2022/11/16 00:57:35;;;;;;;11.07;8.80;;;;;;;;;;5018150;28;20034;-77
2022/11/16 01:00:04;;;;;;;12.37;8.97;;;;;;;;;;5032458;28;20041;-77
2022/11/16 01:02:30;;;;;;;14.10;8.63;;;;;;;;;;5035196;28;20029;-76
2022/11/16 01:04:56;;;;;;;16.53;9.63;;;;;;;;;;5019027;28;20441;-77
2022/11/16 01:07:22;;;;;;;12.77;8.80;;;;;;;;;;5017671;28;20045;-77
2022/11/16 01:09:48;;;;;;;13.03;8.70;;;;;;;;;;5023466;28;20075;-77
2022/11/16 01:12:32;;;;;;;12.17;9.40;;;;;;;;;;5020666;28;20037;-77
2022/11/16 01:14:58;;;;;;;12.93;9.13;;;;;;;;;;5030973;28;20026;-77
2022/11/16 01:17:24;;;;;;;14.40;9.20;;;;;;;;;;5032633;28;20029;-77
2022/11/16 01:19:50;;;;;;;16.20;8.53;;;;;;;;;;5020174;28;20029;-77
2022/11/16 01:22:16;;;;;;;15.47;9.70;;;;;;;;;;5018695;28;20033;-77
2022/11/16 01:24:42;;;;;;;11.93;8.17;;;;;;;;;;5021147;28;20065;-77
2022/11/16 01:27:11;;;;;;;14.53;9.37;;;;;;;;;;5019540;28;20037;-77
2022/11/16 01:29:37;;;;;;;15.03;9.50;;;;;;;;;;5031517;28;20030;-76
2022/11/16 01:32:03;;;;;;;13.33;8.93;;;;;;;;;;5019068;28;20030;-77
2022/11/16 01:34:29;;;;;;;14.17;9.33;;;;;;;;;;5029012;28;20943;-77
2022/11/16 01:36:55;;;;;;;12.37;8.90;;;;;;;;;;5031719;28;20033;-77
2022/11/16 01:39:24;;;;;;;12.87;9.17;;;;;;;;;;5019832;28;20033;-77
2022/11/16 01:41:50;;;;;;;14.97;8.87;;;;;;;;;;5033673;28;20038;-77
2022/11/16 01:44:33;;;;;;;15.60;9.10;;;;;;;;;;5032072;28;20033;-77
2022/11/16 01:47:21;;;;;;;12.63;8.63;;;;;;;;;;5030270;28;20466;-77
2022/11/16 01:50:17;;;;;;;15.67;9.67;;;;;;;;;;5030537;28;20042;-76
2022/11/16 01:53:01;;;;;;;17.57;10.77;;;;;;;;;;5031539;28;20042;-76
2022/11/16 01:55:42;;;;;;;15.67;9.80;;;;;;;;;;5021364;28;20072;-77
2022/11/16 01:58:13;;;;;;;14.47;9.73;;;;;;;;;;5030555;28;20025;-76
2022/11/16 02:00:47;;;;;;;17.97;10.33;;;;;;;;;;5030686;28;20026;-75
2022/11/16 02:12:17;;;;;;;16.30;10.23;;;;;;;;;;5021668;28;20056;-76
2022/11/16 02:14:46;;;;;;;15.80;10.43;;;;;;;;;;5018212;28;20112;-76
2022/11/16 02:17:31;;;;;;;15.73;10.50;;;;;;;;;;5028809;28;20548;-76
2022/11/16 02:20:18;;;;;;;14.53;9.77;;;;;;;;;;5030893;28;20084;-76
2022/11/16 02:23:02;;;;;;;17.47;9.90;;;;;;;;;;5029915;28;20041;-76
2022/11/16 02:25:47;;;;;;;13.60;9.07;;;;;;;;;;5019201;28;20026;-76
2022/11/16 02:28:25;;;;;;;16.80;9.10;;;;;;;;;;5028647;28;20414;-75
2022/11/16 02:30:53;;;;;;;13.17;8.77;;;;;;;;;;5029200;28;20033;-77
2022/11/16 02:33:22;;;;;;;15.67;9.60;;;;;;;;;;5026383;28;20026;-76
2022/11/16 02:35:53;;;;;;;14.73;9.47;;;;;;;;;;5018354;28;20025;-76
2022/11/16 02:38:23;;;;;;;15.57;10.35;;;;;;;;;;5018359;28;20466;-76
2022/11/16 02:40:51;;;;;;;18.53;10.77;;;;;;;;;;5030493;28;20051;-77
2022/11/16 02:43:20;;;;;;;15.67;9.53;;;;;;;;;;5032085;28;20034;-75
2022/11/16 02:45:49;;;;;;;15.37;10.60;;;;;;;;;;5030350;28;20045;-77
2022/11/16 02:48:19;;;;;;;17.13;11.17;;;;;;;;;;5016401;28;20446;-76
2022/11/16 02:50:45;;;;;;;17.13;10.13;;;;;;;;;;5018947;28;20064;-76
2022/11/16 02:53:12;;;;;;;16.33;10.67;;;;;;;;;;5017617;28;20128;-76
2022/11/16 02:55:38;;;;;;;14.83;9.43;;;;;;;;;;5020204;28;20029;-77
2022/11/16 02:58:09;;;;;;;15.93;10.70;;;;;;;;;;5025759;28;20037;-76
2022/11/16 03:00:54;;;;;;;17.60;10.40;;;;;;;;;;5020285;28;20030;-76
2022/11/16 03:03:31;;;;;;;20.87;10.90;;;;;;;;;;5018282;28;20064;-77
2022/11/16 03:06:05;;;;;;;15.70;11.03;;;;;;;;;;5015658;28;20485;-76
2022/11/16 03:08:33;;;;;;;16.10;10.73;;;;;;;;;;5028280;28;20045;-77
2022/11/16 03:13:49;;;;;;;20.13;10.73;;;;;;;;;;5020857;28;20088;-76
2022/11/16 03:16:24;;;;;;;17.63;10.73;;;;;;;;;;5015600;28;20040;-77
2022/11/16 03:18:52;;;;;;;15.43;10.70;;;;;;;;;;5031230;28;20029;-77
2022/11/16 03:21:38;;;;;;;16.50;11.37;;;;;;;;;;5035011;28;20035;-77
2022/11/16 03:24:05;;;;;;;18.33;10.67;;;;;;;;;;5034380;28;20030;-78
2022/11/16 03:26:54;;;;;;;18.97;10.53;;;;;;;;;;5011656;28;20125;-77
2022/11/16 03:29:25;;;;;;;18.93;11.30;;;;;;;;;;5017166;28;20073;-76
2022/11/16 03:31:53;;;;;;;18.70;10.77;;;;;;;;;;5029663;28;20029;-77
2022/11/16 03:34:22;;;;;;;19.00;10.00;;;;;;;;;;5016396;28;20062;-76
2022/11/16 03:36:49;;;;;;;21.27;9.80;;;;;;;;;;5015546;28;20045;-77
2022/11/16 03:39:25;;;;;;;16.50;9.77;;;;;;;;;;5017416;28;20900;-76
2022/11/16 03:41:51;;;;;;;14.40;9.07;;;;;;;;;;5016159;28;20056;-77
2022/11/16 03:44:18;;;;;;;16.43;9.13;;;;;;;;;;5016041;28;20029;-77
2022/11/16 03:46:45;;;;;;;14.10;8.80;;;;;;;;;;5015379;28;20385;-76
2022/11/16 03:49:11;;;;;;;12.57;8.80;;;;;;;;;;5028319;28;20425;-77
2022/11/16 03:51:39;;;;;;;14.40;8.80;;;;;;;;;;5029126;28;20029;-76
2022/11/16 03:54:05;;;;;;;13.70;9.10;;;;;;;;;;5016988;28;20065;-77
2022/11/16 03:56:31;;;;;;;19.80;9.70;;;;;;;;;;5017618;28;20034;-77
2022/11/16 03:58:57;;;;;;;17.07;9.03;;;;;;;;;;5016761;28;20025;-77
2022/11/16 04:01:26;;;;;;;14.20;8.03;;;;;;;;;;5023101;28;20033;-77
2022/11/16 04:03:56;;;;;;;10.87;6.77;;;;;;;;;;5020918;28;20044;-76
2022/11/16 04:25:46;;;;;;;6.80;4.50;;;;;;;;;;5023002;28;20130;-76
2022/11/16 04:28:13;;;;;;;8.17;4.70;;;;;;;;;;5033036;28;20037;-77
2022/11/16 04:39:04;;;;;;;7.20;3.43;;;;;;;;;;5021731;28;20045;-76
2022/11/16 04:44:16;;;;;;;6.30;2.60;;;;;;;;;;5022048;28;20132;-77
2022/11/16 04:49:27;;;;;;;3.17;2.00;;;;;;;;;;5020168;28;20045;-77
2022/11/16 04:51:53;;;;;;;3.00;1.67;;;;;;;;;;5018864;28;20084;-76
2022/11/16 04:54:19;;;;;;;2.27;1.27;;;;;;;;;;5022628;28;20030;-76
2022/11/16 04:56:45;;;;;;;2.70;1.43;;;;;;;;;;5029388;28;20045;-77
2022/11/16 04:59:11;;;;;;;2.30;1.00;;;;;;;;;;5022052;28;20084;-77
2022/11/16 05:04:22;;;;;;;2.20;1.27;;;;;;;;;;5017719;28;20045;-76
2022/11/16 05:06:48;;;;;;;1.63;0.70;;;;;;;;;;5023088;28;20026;-77
2022/11/16 05:09:14;;;;;;;3.50;1.00;;;;;;;;;;5022576;28;20061;-76
2022/11/16 05:11:40;;;;;;;2.73;0.90;;;;;;;;;;5021345;28;20128;-77
2022/11/16 05:14:07;;;;;;;1.93;0.83;;;;;;;;;;5032599;28;20026;-77
2022/11/16 05:16:33;;;;;;;1.60;1.00;;;;;;;;;;5017460;28;20021;-77
2022/11/16 05:21:47;;;;;;;2.50;1.00;;;;;;;;;;5020928;28;20683;-76
2022/11/16 05:26:57;;;;;;;4.17;1.20;;;;;;;;;;5017617;28;20068;-75
2022/11/16 05:29:25;;;;;;;3.23;1.20;;;;;;;;;;5017760;28;20455;-77
2022/11/16 05:31:52;;;;;;;1.50;1.20;;;;;;;;;;5021914;28;20025;-77
2022/11/16 05:34:18;;;;;;;2.60;1.40;;;;;;;;;;5022191;28;20094;-77
2022/11/16 05:36:44;;;;;;;2.23;1.40;;;;;;;;;;5031992;28;20045;-77
2022/11/16 05:39:11;;;;;;;5.37;1.67;;;;;;;;;;5019194;28;20025;-76
2022/11/16 05:41:37;;;;;;;4.20;2.13;;;;;;;;;;5029944;28;20033;-77
2022/11/16 05:44:03;;;;;;;3.43;2.40;;;;;;;;;;5019729;28;20038;-77
2022/11/16 05:46:29;;;;;;;5.97;3.13;;;;;;;;;;5017631;28;20030;-76
2022/11/16 05:48:57;;;;;;;3.80;2.50;;;;;;;;;;5019752;28;20056;-77
2022/11/16 05:51:23;;;;;;;6.60;3.40;;;;;;;;;;5020946;28;20037;-76
2022/11/16 05:53:49;;;;;;;4.23;2.97;;;;;;;;;;5018901;28;20037;-76
2022/11/16 05:56:15;;;;;;;4.07;3.20;;;;;;;;;;5018280;28;20446;-77
2022/11/16 05:58:45;;;;;;;6.27;3.30;;;;;;;;;;5030555;28;20036;-77
2022/11/16 06:01:11;;;;;;;4.87;2.67;;;;;;;;;;5030677;28;20030;-77
2022/11/16 06:03:37;;;;;;;3.77;2.30;;;;;;;;;;5030380;28;20067;-77
2022/11/16 06:06:03;;;;;;;4.10;2.43;;;;;;;;;;5021592;28;20128;-77
2022/11/16 06:08:32;;;;;;;5.17;3.03;;;;;;;;;;5017015;28;20112;-77
2022/11/16 06:11:02;;;;;;;4.90;2.97;;;;;;;;;;5018831;28;20029;-77
2022/11/16 06:13:28;;;;;;;9.27;2.90;;;;;;;;;;5029214;28;20025;-77
2022/11/16 06:15:54;;;;;;;7.10;2.97;;;;;;;;;;5019426;28;20117;-77
2022/11/16 06:18:20;;;;;;;6.57;3.17;;;;;;;;;;5021541;28;20449;-77
2022/11/16 06:20:49;;;;;;;6.93;3.93;;;;;;;;;;5030862;28;20029;-76
2022/11/16 06:23:15;;;;;;;7.40;3.70;;;;;;;;;;5029614;28;20065;-77
2022/11/16 06:25:42;;;;;;;8.47;3.80;;;;;;;;;;5029732;28;20038;-76
2022/11/16 06:28:08;;;;;;;7.33;3.90;;;;;;;;;;5017265;28;20138;-77
2022/11/16 06:30:34;;;;;;;9.63;4.50;;;;;;;;;;5017939;28;20064;-76
2022/11/16 06:33:03;;;;;;;11.50;4.40;;;;;;;;;;5017198;28;20127;-77
2022/11/16 06:35:31;;;;;;;6.00;3.13;;;;;;;;;;5020864;28;20037;-77
2022/11/16 06:38:00;;;;;;;5.37;2.97;;;;;;;;;;5017548;28;20018;-77
2022/11/16 06:40:26;;;;;;;8.67;3.10;;;;;;;;;;5015536;28;20126;-77
2022/11/16 06:42:52;;;;;;;9.80;3.67;;;;;;;;;;5032838;28;20231;-76
2022/11/16 06:45:18;;;;;;;11.70;3.73;;;;;;;;;;5020143;28;20859;-76
2022/11/16 06:47:46;;;;;;;10.47;3.40;;;;;;;;;;5018621;28;20037;-76
2022/11/16 06:50:12;;;;;;;8.47;2.73;;;;;;;;;;5021799;28;20751;-77
2022/11/16 06:52:38;;;;;;;4.80;2.53;;;;;;;;;;5019514;28;20618;-77
2022/11/16 06:55:04;;;;;;;6.73;2.60;;;;;;;;;;5019370;28;20053;-77
2022/11/16 06:57:30;;;;;;;6.67;2.30;;;;;;;;;;5016033;28;20062;-77
2022/11/16 06:59:56;;;;;;;10.87;2.33;;;;;;;;;;5029656;28;20065;-76
2022/11/16 07:02:24;;;;;;;8.73;2.87;;;;;;;;;;5030637;28;20045;-77
2022/11/16 07:04:53;;;;;;;6.20;3.10;;;;;;;;;;5016479;28;20065;-76
2022/11/16 07:07:19;;;;;;;9.13;4.90;;;;;;;;;;5031196;28;20180;-76
2022/11/16 07:09:45;;;;;;;11.33;4.93;;;;;;;;;;5032576;28;20033;-76
2022/11/16 07:12:11;;;;;;;15.23;5.00;;;;;;;;;;5019042;28;20026;-76
2022/11/16 07:14:39;;;;;;;14.43;5.20;;;;;;;;;;5030119;28;20029;-78
2022/11/16 07:17:05;;;;;;;7.33;3.83;;;;;;;;;;5033127;28;20441;-77
2022/11/16 07:19:37;;;;;;;14.03;4.00;;;;;;;;;;5017108;28;20024;-77
2022/11/16 07:22:03;;;;;;;6.23;3.10;;;;;;;;;;5030497;28;20029;-76
2022/11/16 07:24:29;;;;;;;11.27;4.23;;;;;;;;;;5021916;28;20423;-77
2022/11/16 07:26:55;;;;;;;11.50;5.63;;;;;;;;;;5013102;28;20469;-77
2022/11/16 07:29:21;;;;;;;14.13;6.53;;;;;;;;;;5032540;28;20758;-77
2022/11/16 07:31:47;;;;;;;16.37;8.33;;;;;;;;;;5016506;28;20470;-75
2022/11/16 07:34:16;;;;;;;13.77;5.33;;;;;;;;;;5017068;28;20715;-76
2022/11/16 07:36:42;;;;;;;9.63;4.10;;;;;;;;;;5015559;28;20021;-76
2022/11/16 07:39:09;;;;;;;11.10;5.37;;;;;;;;;;5019932;28;20041;-76
2022/11/16 07:41:37;;;;;;;8.67;5.60;;;;;;;;;;5017086;28;20896;-77
2022/11/16 07:44:06;;;;;;;11.73;4.13;;;;;;;;;;5020577;28;20401;-77
2022/11/16 07:46:32;;;;;;;9.90;4.47;;;;;;;;;;5028730;28;20053;-77
2022/11/16 07:48:58;;;;;;;9.47;4.17;;;;;;;;;;5019040;28;20034;-77
2022/11/16 07:51:24;;;;;;;11.67;3.57;;;;;;;;;;5016185;28;20033;-76
2022/11/16 07:53:57;;;;;;;9.63;3.93;;;;;;;;;;5018451;28;20045;-76
2022/11/16 07:56:23;;;;;;;11.13;3.87;;;;;;;;;;5016821;28;20030;-77
2022/11/16 07:58:50;;;;;;;13.20;4.27;;;;;;;;;;5018981;28;20849;-76
2022/11/16 08:01:17;;;;;;;12.60;4.30;;;;;;;;;;5033727;28;20033;-77
2022/11/16 08:03:43;;;;;;;8.57;3.30;;;;;;;;;;5032646;28;20074;-78
2022/11/16 08:06:20;;;;;;;9.73;3.43;;;;;;;;;;5021533;28;20048;-78
2022/11/16 08:08:46;;;;;;;9.83;3.97;;;;;;;;;;5019248;28;20030;-76
2022/11/16 08:11:12;;;;;;;9.70;2.90;;;;;;;;;;5015702;28;20056;-77
2022/11/16 08:13:41;;;;;;;18.30;4.73;;;;;;;;;;5012864;28;20457;-77
2022/11/16 08:16:10;;;;;;;12.03;2.97;;;;;;;;;;5018307;28;20064;-76
2022/11/16 08:18:37;;;;;;;11.97;3.70;;;;;;;;;;5016465;28;20109;-76
2022/11/16 08:21:05;;;;;;;7.87;2.87;;;;;;;;;;5015996;28;20060;-76
2022/11/16 08:23:33;;;;;;;11.13;2.30;;;;;;;;;;5025431;28;20025;-75
2022/11/16 08:26:00;;;;;;;15.33;3.20;;;;;;;;;;5018958;28;20101;-76
2022/11/16 08:28:26;;;;;;;20.73;4.30;;;;;;;;;;5030063;28;20068;-75
2022/11/16 08:30:55;;;;;;;12.90;3.30;;;;;;;;;;5020217;28;20038;-75
2022/11/16 08:33:23;;;;;;;13.60;2.77;;;;;;;;;;5030327;28;21684;-77
2022/11/16 08:35:49;;;;;;;12.60;3.00;;;;;;;;;;5017962;28;20083;-77
2022/11/16 08:38:15;;;;;;;13.57;3.40;;;;;;;;;;5016664;28;20025;-76
2022/11/16 08:40:41;;;;;;;12.37;3.40;;;;;;;;;;5010845;28;20041;-77
2022/11/16 08:43:07;;;;;;;11.27;3.97;;;;;;;;;;5014516;28;20036;-77
2022/11/16 08:45:33;;;;;;;13.97;3.03;;;;;;;;;;5029024;28;20029;-76
2022/11/16 08:47:59;;;;;;;8.40;2.97;;;;;;;;;;5019332;28;20362;-78
2022/11/16 08:50:25;;;;;;;9.07;2.30;;;;;;;;;;5033409;28;20397;-77
2022/11/16 08:52:51;;;;;;;10.57;2.30;;;;;;;;;;5020713;28;20434;-77
2022/11/16 08:55:18;;;;;;;9.90;3.03;;;;;;;;;;5018899;28;20029;-77
2022/11/16 08:57:44;;;;;;;15.70;3.63;;;;;;;;;;5019283;28;20036;-77
2022/11/16 09:00:11;;;;;;;11.83;2.50;;;;;;;;;;5030910;28;20092;-77
2022/11/16 09:02:38;;;;;;;11.30;3.07;;;;;;;;;;5035533;28;20117;-77
2022/11/16 09:05:04;;;;;;;9.37;2.10;;;;;;;;;;5019657;28;20029;-76
2022/11/16 09:07:30;;;;;;;9.60;2.30;;;;;;;;;;5020726;28;20061;-76
2022/11/16 09:09:56;;;;;;;9.57;2.63;;;;;;;;;;5018912;28;20685;-76
2022/11/16 09:12:22;;;;;;;6.17;2.60;;;;;;;;;;5018058;28;20049;-75
2022/11/16 09:14:48;;;;;;;11.53;2.57;;;;;;;;;;5020118;28;20121;-77
2022/11/16 09:17:14;;;;;;;13.97;2.67;;;;;;;;;;5021609;28;20030;-77
2022/11/16 09:19:43;;;;;;;11.83;2.80;;;;;;;;;;5017451;28;20037;-78
2022/11/16 09:22:09;;;;;;;12.50;3.27;;;;;;;;;;5026119;28;20362;-77
2022/11/16 09:24:35;;;;;;;17.50;3.60;;;;;;;;;;5022502;28;20029;-77
2022/11/16 09:27:01;;;;;;;11.47;2.80;;;;;;;;;;5024737;28;20124;-77
2022/11/16 09:29:27;;;;;;;10.80;2.70;;;;;;;;;;5023040;28;20056;-78
2022/11/16 09:31:53;;;;;;;12.43;2.67;;;;;;;;;;5020794;28;20065;-77
2022/11/16 09:34:20;;;;;;;12.00;2.53;;;;;;;;;;5022555;28;20033;-77
2022/11/16 09:36:46;;;;;;;9.50;2.93;;;;;;;;;;5022283;28;20120;-76
2022/11/16 09:39:12;;;;;;;9.53;2.00;;;;;;;;;;5033598;28;20216;-77
2022/11/16 09:41:49;;;;;;;10.40;2.63;;;;;;;;;;5021539;28;20033;-78
2022/11/16 09:44:18;;;;;;;6.97;2.53;;;;;;;;;;5031290;28;20053;-77
2022/11/16 09:46:48;;;;;;;15.30;2.50;;;;;;;;;;5031336;28;20083;-77
2022/11/16 09:49:18;;;;;;;12.33;2.73;;;;;;;;;;5019291;28;20045;-76
2022/11/16 09:51:47;;;;;;;12.37;2.00;;;;;;;;;;5022363;28;20041;-77
2022/11/16 09:54:30;;;;;;;12.03;2.00;;;;;;;;;;5018568;28;20037;-77
2022/11/16 09:57:00;;;;;;;13.07;2.67;;;;;;;;;;5019052;28;20128;-77
2022/11/16 09:59:28;;;;;;;10.40;3.10;;;;;;;;;;5017487;28;20573;-77
2022/11/16 10:01:54;;;;;;;8.87;2.00;;;;;;;;;;5020664;28;20029;-77
2022/11/16 10:04:41;;;;;;;13.30;2.23;;;;;;;;;;5019212;28;20335;-76
2022/11/16 10:07:19;;;;;;;10.30;2.13;;;;;;;;;;5028541;28;20037;-77
2022/11/16 10:09:46;;;;;;;7.00;2.10;;;;;;;;;;5030472;28;20036;-76
2022/11/16 10:12:18;;;;;;;12.43;1.73;;;;;;;;;;5027988;28;20130;-77
2022/11/16 10:15:03;;;;;;;13.80;3.22;;;;;;;;;;5020173;28;20022;-76
2022/11/16 10:17:38;;;;;;;16.07;3.20;;;;;;;;;;5016898;28;20053;-76
2022/11/16 10:20:10;;;;;;;9.50;2.17;;;;;;;;;;5032181;28;20044;-76
2022/11/16 10:22:36;;;;;;;8.32;1.58;;;;;;;;;;5017050;28;20034;-77
2022/11/16 10:25:16;;;;;;;7.30;1.50;;;;;;;;;;5017166;28;20018;-77
2022/11/16 10:27:43;;;;;;;6.17;1.73;;;;;;;;;;5016037;28;20175;-78
2022/11/16 10:30:12;;;;;;;11.90;2.80;;;;;;;;;;5018615;28;20038;-76
2022/11/16 10:32:54;;;;;;;11.53;1.70;;;;;;;;;;5017344;28;20109;-76
2022/11/16 10:35:32;;;;;;;9.90;1.90;;;;;;;;;;5018114;28;20022;-76
2022/11/16 10:38:01;;;;;;;6.80;1.60;;;;;;;;;;5016890;28;20029;-75
2022/11/16 10:40:37;;;;;;;12.37;2.10;;;;;;;;;;5028349;28;20026;-76
2022/11/16 10:43:16;;;;;;;5.20;1.37;;;;;;;;;;5016660;28;20030;-75
2022/11/16 10:45:45;;;;;;;8.63;1.83;;;;;;;;;;5021213;28;20032;-77
2022/11/16 10:48:11;;;;;;;10.53;2.73;;;;;;;;;;5018114;28;20026;-77
2022/11/16 10:50:36;;;;;;;13.47;1.50;;;;;;;;;;5033092;28;20354;-74
2022/11/16 10:53:05;;;;;;;10.03;1.83;;;;;;;;;;5018004;28;20029;-75
2022/11/16 10:55:33;;;;;;;14.80;2.27;;;;;;;;;;5018129;28;20017;-76
2022/11/16 10:58:04;;;;;;;12.57;2.13;;;;;;;;;;5028409;28;20461;-76
2022/11/16 11:00:46;;;;;;;7.83;1.67;;;;;;;;;;5018116;28;20033;-78
2022/11/16 11:03:13;;;;;;;8.27;1.80;;;;;;;;;;5034354;28;20480;-76
2022/11/16 11:05:51;;;;;;;7.07;1.77;;;;;;;;;;5017132;28;20473;-74
2022/11/16 11:08:29;;;;;;;10.20;2.67;;;;;;;;;;5027879;28;20052;-76
2022/11/16 11:14:04;;;;;;;10.50;1.77;;;;;;;;;;5017074;28;20095;-77
2022/11/16 11:16:30;;;;;;;6.13;1.73;;;;;;;;;;5026248;28;20386;-77
2022/11/16 11:18:56;;;;;;;5.37;1.10;;;;;;;;;;5017286;28;20053;-77
2022/11/16 11:24:41;;;;;;;4.50;1.57;;;;;;;;;;5016445;28;20899;-77
2022/11/16 11:27:07;;;;;;;7.17;1.43;;;;;;;;;;5028898;28;20045;-76
2022/11/16 11:29:37;;;;;;;11.87;1.87;;;;;;;;;;5015505;28;20035;-76
2022/11/16 11:32:13;;;;;;;6.37;1.23;;;;;;;;;;5027960;28;20021;-77
2022/11/16 11:34:41;;;;;;;6.97;1.50;;;;;;;;;;5027015;28;20191;-76
2022/11/16 11:37:13;;;;;;;10.50;2.33;;;;;;;;;;5012925;28;20032;-77
2022/11/16 11:39:41;;;;;;;5.50;1.40;;;;;;;;;;5017613;28;20025;-77
2022/11/16 11:42:13;;;;;;;7.50;1.93;;;;;;;;;;5015726;28;20030;-76
2022/11/16 11:44:49;;;;;;;8.63;1.23;;;;;;;;;;5019655;28;20026;-75
2022/11/16 11:47:15;;;;;;;5.37;1.77;;;;;;;;;;5030869;28;20029;-77
2022/11/16 11:49:48;;;;;;;8.53;1.37;;;;;;;;;;5016089;28;20552;-77
2022/11/16 11:52:18;;;;;;;4.97;1.00;;;;;;;;;;5015011;28;20030;-77
2022/11/16 11:54:46;;;;;;;6.30;1.30;;;;;;;;;;5022099;28;20088;-76
2022/11/16 11:57:15;;;;;;;7.10;1.57;;;;;;;;;;5023509;28;20025;-77
2022/11/16 11:59:41;;;;;;;5.87;1.70;;;;;;;;;;5015674;28;20032;-77
2022/11/16 12:02:12;;;;;;;4.47;1.20;;;;;;;;;;5017021;28;20037;-76
2022/11/16 12:04:41;;;;;;;7.80;1.23;;;;;;;;;;5029822;28;20120;-76
2022/11/16 12:07:07;;;;;;;7.23;1.53;;;;;;;;;;5031386;28;20117;-76
2022/11/16 12:09:33;;;;;;;7.57;1.63;;;;;;;;;;5033910;28;20044;-78
2022/11/16 12:12:02;;;;;;;5.87;1.50;;;;;;;;;;5021623;28;20041;-78
2022/11/16 12:14:33;;;;;;;7.47;1.10;;;;;;;;;;5040904;28;20034;-78
2022/11/16 12:17:08;;;;;;;9.17;1.33;;;;;;;;;;5021378;28;20482;-76
2022/11/16 12:19:42;;;;;;;6.10;0.90;;;;;;;;;;5031861;28;20045;-78
2022/11/16 12:22:14;;;;;;;8.33;1.40;;;;;;;;;;5036396;28;20041;-76
2022/11/16 12:24:50;;;;;;;6.80;1.50;;;;;;;;;;5021391;28;20093;-78
2022/11/16 12:27:27;;;;;;;6.20;1.63;;;;;;;;;;5024811;28;20022;-77
2022/11/16 12:29:59;;;;;;;7.83;1.10;;;;;;;;;;5035377;28;20041;-78
2022/11/16 12:32:27;;;;;;;6.25;1.45;;;;;;;;;;5023835;28;20033;-77
2022/11/16 12:34:53;;;;;;;3.03;0.70;;;;;;;;;;5031787;28;21614;-77
2022/11/16 12:37:19;;;;;;;4.47;0.93;;;;;;;;;;5021256;28;20489;-77
2022/11/16 12:39:57;;;;;;;8.73;0.90;;;;;;;;;;5028950;28;20128;-78
2022/11/16 12:42:31;;;;;;;5.53;1.30;;;;;;;;;;5022065;28;20092;-78
2022/11/16 12:45:06;;;;;;;6.87;1.20;;;;;;;;;;5026947;28;20061;-78
2022/11/16 12:47:35;;;;;;;7.70;1.10;;;;;;;;;;5021632;28;20076;-77
2022/11/16 12:50:18;;;;;;;8.47;0.67;;;;;;;;;;5030349;28;20528;-78
2022/11/16 12:52:43;;;;;;;;;;;;;;;;;;5031995;28;20049;-78
2022/11/16 12:55:11;;;;;;;7.33;1.27;;;;;;;;;;5053820;28;19975;-76
2022/11/16 12:57:44;;;;;;;6.37;1.37;;;;;;;;;;5033834;28;20104;-76
2022/11/16 13:00:12;;;;;;;6.47;1.20;;;;;;;;;;5028033;28;20358;-77
2022/11/16 13:02:57;;;;;;;4.93;1.17;;;;;;;;;;5022348;28;20022;-77
2022/11/16 13:05:24;;;;;;;5.30;2.03;;;;;;;;;;5020244;28;20077;-78
2022/11/16 13:07:52;;;;;;;3.20;0.83;;;;;;;;;;5022752;28;20073;-77
2022/11/16 13:10:35;;;;;;;8.90;1.00;;;;;;;;;;5030776;28;20042;-78
2022/11/16 13:13:06;;;;;;;3.53;0.70;;;;;;;;;;5018861;28;20030;-76
2022/11/16 13:15:37;;;;;;;9.77;1.40;;;;;;;;;;5020970;28;20111;-77
2022/11/16 13:18:05;;;;;;;6.53;1.13;;;;;;;;;;5029621;28;20107;-77
2022/11/16 13:20:34;;;;;;;7.77;1.07;;;;;;;;;;5016114;28;20129;-78
2022/11/16 13:23:03;;;;;;;5.40;1.63;;;;;;;;;;5028377;28;20032;-78
2022/11/16 13:25:32;;;;;;;6.30;1.63;;;;;;;;;;5032089;28;20168;-77
2022/11/16 13:28:21;;;;;;;7.10;2.47;;;;;;;;;;5019645;28;20080;-77
2022/11/16 13:31:08;;;;;;;4.23;0.90;;;;;;;;;;5034454;28;20042;-78
2022/11/16 13:33:43;;;;;;;5.23;1.70;;;;;;;;;;5011042;28;20409;-77
2022/11/16 13:36:28;;;;;;;8.67;2.40;;;;;;;;;;5029898;28;20520;-77
2022/11/16 13:38:54;;;;;;;5.97;1.20;;;;;;;;;;5018889;28;20033;-78
2022/11/16 13:41:40;;;;;;;4.97;1.33;;;;;;;;;;5030725;28;20038;-78
2022/11/16 13:44:19;;;;;;;6.45;1.15;;;;;;;;;;5018577;28;20107;-77
2022/11/16 13:46:45;;;;;;;3.30;1.33;;;;;;;;;;5020492;28;20096;-77
2022/11/16 13:49:20;;;;;;;2.58;0.88;;;;;;;;;;5016889;28;20033;-75
2022/11/16 13:51:50;;;;;;;3.47;0.85;;;;;;;;;;5018609;28;20058;-77
2022/11/16 13:54:26;;;;;;;4.60;0.98;;;;;;;;;;5018659;28;20056;-77
2022/11/16 13:56:52;;;;;;;2.67;0.60;;;;;;;;;;5016632;28;20035;-77
2022/11/16 13:59:23;;;;;;;2.42;1.50;;;;;;;;;;5018265;28;20061;-77
2022/11/16 14:01:54;;;;;;;5.50;1.50;;;;;;;;;;5018221;28;20060;-77
2022/11/16 14:04:40;;;;;;;2.80;0.82;;;;;;;;;;5017879;28;20104;-77
2022/11/16 14:07:26;;;;;;;4.28;1.38;;;;;;;;;;5031188;28;20029;-78
2022/11/16 14:09:52;;;;;;;3.78;1.40;;;;;;;;;;5019531;28;20091;-77
2022/11/16 14:12:37;;;;;;;5.15;1.27;;;;;;;;;;5019127;28;20112;-77
2022/11/16 14:15:12;;;;;;;4.35;1.65;;;;;;;;;;5019299;28;20037;-77
2022/11/16 14:17:53;;;;;;;3.10;1.50;;;;;;;;;;5020657;28;20048;-77
2022/11/16 14:20:46;;;;;;;4.13;0.90;;;;;;;;;;5033671;28;20034;-76
2022/11/16 14:23:21;;;;;;;4.35;0.95;;;;;;;;;;5026256;28;20126;-77
2022/11/16 14:25:59;;;;;;;5.57;1.85;;;;;;;;;;5027891;28;20084;-76
2022/11/16 14:28:46;;;;;;;3.90;1.05;;;;;;;;;;5032498;28;20022;-76
2022/11/16 14:31:12;;;;;;;4.93;1.00;;;;;;;;;;5016634;28;20367;-77
2022/11/16 14:33:38;;;;;;;5.57;0.98;;;;;;;;;;5019704;28;20041;-78
2022/11/16 14:36:05;;;;;;;3.67;1.20;;;;;;;;;;5016209;28;20025;-77
2022/11/16 14:38:32;;;;;;;7.75;1.77;;;;;;;;;;5016772;28;20117;-76
2022/11/16 14:41:00;;;;;;;11.35;1.35;;;;;;;;;;5017417;28;20033;-78
2022/11/16 14:43:26;;;;;;;8.80;2.05;;;;;;;;;;5029629;28;20021;-77
2022/11/16 14:46:01;;;;;;;8.75;2.15;;;;;;;;;;5025808;28;20117;-77
2022/11/16 14:48:30;;;;;;;3.58;1.65;;;;;;;;;;5016827;28;20038;-77
2022/11/16 14:51:02;;;;;;;5.00;1.20;;;;;;;;;;5017716;28;20037;-78
2022/11/16 14:53:28;;;;;;;5.20;1.58;;;;;;;;;;5026462;28;20029;-78
2022/11/16 14:56:05;;;;;;;4.43;0.80;;;;;;;;;;5017026;28;20026;-78
2022/11/16 14:58:31;;;;;;;8.93;2.33;;;;;;;;;;5030692;28;20536;-77
2022/11/16 15:01:04;;;;;;;4.43;1.10;;;;;;;;;;5016371;28;20437;-76
2022/11/16 15:03:36;;;;;;;7.77;1.83;;;;;;;;;;5015439;28;20033;-77
2022/11/16 15:06:02;;;;;;;6.53;1.10;;;;;;;;;;5016284;28;20478;-77
2022/11/16 15:08:37;;;;;;;6.47;2.60;;;;;;;;;;5031728;28;20044;-77
2022/11/16 15:11:04;;;;;;;4.60;1.03;;;;;;;;;;5017395;28;20065;-76
2022/11/16 15:13:30;;;;;;;8.47;1.27;;;;;;;;;;5029761;28;20029;-76
2022/11/16 15:16:09;;;;;;;6.03;1.57;;;;;;;;;;5019795;28;20068;-77
2022/11/16 15:18:35;;;;;;;4.47;0.93;;;;;;;;;;5033746;28;20117;-76
2022/11/16 15:21:01;;;;;;;4.30;1.50;;;;;;;;;;5026758;28;20120;-76
2022/11/16 15:23:30;;;;;;;5.23;1.13;;;;;;;;;;5030413;28;20049;-76
2022/11/16 15:25:58;;;;;;;6.20;1.17;;;;;;;;;;5019426;28;20029;-76
2022/11/16 15:28:33;;;;;;;3.20;1.10;;;;;;;;;;5018300;28;20045;-77
2022/11/16 15:31:01;;;;;;;8.50;1.30;;;;;;;;;;5018174;28;20034;-77
2022/11/16 15:33:31;;;;;;;6.23;1.57;;;;;;;;;;5016393;28;20335;-76
2022/11/16 15:35:57;;;;;;;4.03;1.00;;;;;;;;;;5029200;28;20034;-76
2022/11/16 15:38:23;;;;;;;4.97;1.67;;;;;;;;;;5018373;28;20100;-76
2022/11/16 15:40:57;;;;;;;2.97;1.23;;;;;;;;;;5015027;28;20048;-77
2022/11/16 15:43:24;;;;;;;5.40;2.13;;;;;;;;;;5024162;28;20021;-76
2022/11/16 15:45:51;;;;;;;7.20;2.10;;;;;;;;;;5026926;28;20033;-77
2022/11/16 15:48:20;;;;;;;6.87;1.97;;;;;;;;;;5023768;28;20038;-77
2022/11/16 15:50:56;;;;;;;7.17;1.93;;;;;;;;;;5029190;28;20034;-77